Gillette-Campbell County Airport

Airport
ICAO code: 
KGCC
Summary
ICAO Region: 
NAM
Territory: 
Location: 
Gillette, Wyoming,
Elevation: 
4365 ft
Coordinates: 
Aerial View: 
44° 20' 47.958" N, 105° 31' 57.775" W
Airport CFIT: 
Altimeter Temperature Error Correction
Airport RE: 
Hot and High Operations
Metar
Observation
KGCC 020853Z AUTO 27009KT 10SM CLR 12/M02 A2998 RMK AO2 SLP117 T01171017 53000
Station
Gillette, Gillette-Campbell County Airport
Date/Time
2021-12-02 08:53:00
Wind direction
270°
Wind speed
09 kts
Lowest cloud amount
n/a
Temperature
11.7°C
Dew point
-1.7°C
Humidity
39%
Weather condition
n/a

Description

Gillette–Campbell County Airport is a public use airport located 7 km northwest of the central business district of Gillette, a city in Campbell County, Wyoming.

Climatology

Semi-arid climate (Köppen climate classification BSk). - Hot, sometimes extremely hot summers and cold, sometimes very cold winters. Some snowfall during the winter. Areas featuring cold semi-arid climates are sometimes subject to major temperature swings during a 24 hour period.

Runways

Designator Length Width Surface Rops
3/21 1769 23 CON Yes/Yes
16/34 2286 46 CON Yes/Yes
Airport map: 
Aerial View: 

SKYbrary Partners:

Safety knowledge contributed by: